sensor_id;sensor_type;location;lat;lon;timestamp;P1;durP1;ratioP1;P2;durP2;ratioP2
62268;SDS011;56517;51.634;5.566;2022-09-21T00:03:03;11.15;;;6.40;;
62268;SDS011;56517;51.634;5.566;2022-09-21T00:08:04;9.55;;;6.13;;
62268;SDS011;56517;51.634;5.566;2022-09-21T00:13:05;10.98;;;6.25;;
62268;SDS011;56517;51.634;5.566;2022-09-21T00:18:08;9.88;;;6.63;;
62268;SDS011;56517;51.634;5.566;2022-09-21T00:23:09;9.95;;;6.22;;
62268;SDS011;56517;51.634;5.566;2022-09-21T00:28:10;9.82;;;6.55;;
62268;SDS011;56517;51.634;5.566;2022-09-21T00:33:12;10.23;;;6.72;;
62268;SDS011;56517;51.634;5.566;2022-09-21T00:38:12;13.80;;;6.78;;
62268;SDS011;56517;51.634;5.566;2022-09-21T00:43:13;10.55;;;6.80;;
62268;SDS011;56517;51.634;5.566;2022-09-21T00:48:16;10.43;;;7.03;;
62268;SDS011;56517;51.634;5.566;2022-09-21T00:53:16;10.75;;;6.95;;
62268;SDS011;56517;51.634;5.566;2022-09-21T00:58:18;12.05;;;7.22;;
62268;SDS011;56517;51.634;5.566;2022-09-21T01:03:21;10.55;;;6.95;;
62268;SDS011;56517;51.634;5.566;2022-09-21T01:08:22;10.40;;;6.88;;
62268;SDS011;56517;51.634;5.566;2022-09-21T01:13:26;10.95;;;7.30;;
62268;SDS011;56517;51.634;5.566;2022-09-21T01:18:33;8.93;;;6.53;;
62268;SDS011;56517;51.634;5.566;2022-09-21T01:23:45;15.07;;;7.40;;
62268;SDS011;56517;51.634;5.566;2022-09-21T01:28:55;14.63;;;7.88;;
62268;SDS011;56517;51.634;5.566;2022-09-21T01:34:01;11.27;;;6.40;;
62268;SDS011;56517;51.634;5.566;2022-09-21T01:39:05;12.65;;;7.85;;
62268;SDS011;56517;51.634;5.566;2022-09-21T01:44:09;16.00;;;8.20;;
62268;SDS011;56517;51.634;5.566;2022-09-21T01:49:11;13.75;;;7.53;;
62268;SDS011;56517;51.634;5.566;2022-09-21T01:54:14;12.05;;;7.60;;
62268;SDS011;56517;51.634;5.566;2022-09-21T01:59:18;11.13;;;7.15;;
62268;SDS011;56517;51.634;5.566;2022-09-21T02:04:21;11.18;;;7.22;;
62268;SDS011;56517;51.634;5.566;2022-09-21T02:09:22;12.70;;;7.20;;
62268;SDS011;56517;51.634;5.566;2022-09-21T02:14:24;14.18;;;7.07;;
62268;SDS011;56517;51.634;5.566;2022-09-21T02:19:26;11.77;;;6.78;;
62268;SDS011;56517;51.634;5.566;2022-09-21T02:24:31;10.25;;;7.18;;
62268;SDS011;56517;51.634;5.566;2022-09-21T02:29:36;9.80;;;6.78;;
62268;SDS011;56517;51.634;5.566;2022-09-21T02:34:42;11.23;;;8.02;;
62268;SDS011;56517;51.634;5.566;2022-09-21T02:39:44;10.05;;;7.38;;
62268;SDS011;56517;51.634;5.566;2022-09-21T02:44:50;19.38;;;8.07;;
62268;SDS011;56517;51.634;5.566;2022-09-21T02:49:52;10.07;;;7.30;;
62268;SDS011;56517;51.634;5.566;2022-09-21T02:54:55;16.75;;;8.15;;
62268;SDS011;56517;51.634;5.566;2022-09-21T02:59:57;15.40;;;7.88;;
62268;SDS011;56517;51.634;5.566;2022-09-21T03:04:58;12.35;;;7.68;;
62268;SDS011;56517;51.634;5.566;2022-09-21T03:09:59;14.30;;;7.45;;
62268;SDS011;56517;51.634;5.566;2022-09-21T03:15:00;11.27;;;7.80;;
62268;SDS011;56517;51.634;5.566;2022-09-21T03:20:01;10.25;;;7.85;;
62268;SDS011;56517;51.634;5.566;2022-09-21T03:25:02;13.05;;;8.15;;
62268;SDS011;56517;51.634;5.566;2022-09-21T03:30:04;11.88;;;8.05;;
62268;SDS011;56517;51.634;5.566;2022-09-21T03:35:05;10.65;;;7.55;;
62268;SDS011;56517;51.634;5.566;2022-09-21T03:40:06;11.23;;;7.70;;
62268;SDS011;56517;51.634;5.566;2022-09-21T03:45:09;10.30;;;7.35;;
62268;SDS011;56517;51.634;5.566;2022-09-21T03:50:10;16.23;;;8.30;;
62268;SDS011;56517;51.634;5.566;2022-09-21T03:55:11;12.60;;;7.78;;
62268;SDS011;56517;51.634;5.566;2022-09-21T04:00:13;12.13;;;7.78;;
62268;SDS011;56517;51.634;5.566;2022-09-21T04:05:14;14.93;;;8.18;;
62268;SDS011;56517;51.634;5.566;2022-09-21T04:10:16;13.32;;;8.68;;
62268;SDS011;56517;51.634;5.566;2022-09-21T04:15:18;13.18;;;8.65;;
62268;SDS011;56517;51.634;5.566;2022-09-21T04:20:19;11.15;;;8.27;;
62268;SDS011;56517;51.634;5.566;2022-09-21T04:25:19;14.32;;;8.73;;
62268;SDS011;56517;51.634;5.566;2022-09-21T04:30:21;13.82;;;8.25;;
62268;SDS011;56517;51.634;5.566;2022-09-21T04:35:22;15.30;;;10.52;;
62268;SDS011;56517;51.634;5.566;2022-09-21T04:40:23;13.30;;;9.05;;
62268;SDS011;56517;51.634;5.566;2022-09-21T04:45:25;11.13;;;8.55;;
62268;SDS011;56517;51.634;5.566;2022-09-21T04:50:25;9.07;;;8.18;;
62268;SDS011;56517;51.634;5.566;2022-09-21T04:55:26;10.75;;;8.18;;
62268;SDS011;56517;51.634;5.566;2022-09-21T05:00:28;12.85;;;8.23;;
62268;SDS011;56517;51.634;5.566;2022-09-21T05:05:28;14.20;;;9.73;;
62268;SDS011;56517;51.634;5.566;2022-09-21T05:10:29;12.35;;;9.40;;
62268;SDS011;56517;51.634;5.566;2022-09-21T05:15:31;12.80;;;9.57;;
62268;SDS011;56517;51.634;5.566;2022-09-21T05:20:31;12.23;;;9.07;;
62268;SDS011;56517;51.634;5.566;2022-09-21T05:25:32;16.50;;;9.23;;
62268;SDS011;56517;51.634;5.566;2022-09-21T05:30:34;13.27;;;9.35;;
62268;SDS011;56517;51.634;5.566;2022-09-21T05:35:36;11.10;;;9.77;;
62268;SDS011;56517;51.634;5.566;2022-09-21T05:40:37;16.55;;;10.32;;
62268;SDS011;56517;51.634;5.566;2022-09-21T05:45:41;16.73;;;10.38;;
62268;SDS011;56517;51.634;5.566;2022-09-21T05:50:48;13.30;;;10.10;;
62268;SDS011;56517;51.634;5.566;2022-09-21T05:55:51;15.82;;;10.00;;
62268;SDS011;56517;51.634;5.566;2022-09-21T06:00:59;19.00;;;9.73;;
62268;SDS011;56517;51.634;5.566;2022-09-21T06:06:03;11.90;;;9.15;;
62268;SDS011;56517;51.634;5.566;2022-09-21T06:11:03;15.93;;;10.30;;
62268;SDS011;56517;51.634;5.566;2022-09-21T06:16:06;14.80;;;9.55;;
62268;SDS011;56517;51.634;5.566;2022-09-21T06:21:07;19.02;;;11.05;;
62268;SDS011;56517;51.634;5.566;2022-09-21T06:26:07;20.67;;;11.43;;
62268;SDS011;56517;51.634;5.566;2022-09-21T06:31:10;20.33;;;10.48;;
62268;SDS011;56517;51.634;5.566;2022-09-21T06:36:10;15.48;;;11.07;;
62268;SDS011;56517;51.634;5.566;2022-09-21T06:41:11;19.02;;;10.85;;
62268;SDS011;56517;51.634;5.566;2022-09-21T06:46:13;19.23;;;11.82;;
62268;SDS011;56517;51.634;5.566;2022-09-21T06:51:13;22.58;;;10.98;;
62268;SDS011;56517;51.634;5.566;2022-09-21T06:56:14;17.45;;;11.45;;
62268;SDS011;56517;51.634;5.566;2022-09-21T07:01:16;21.02;;;11.15;;
62268;SDS011;56517;51.634;5.566;2022-09-21T07:06:18;21.00;;;10.93;;
62268;SDS011;56517;51.634;5.566;2022-09-21T07:11:19;13.50;;;9.60;;
62268;SDS011;56517;51.634;5.566;2022-09-21T07:16:20;16.15;;;8.48;;
62268;SDS011;56517;51.634;5.566;2022-09-21T07:21:21;13.80;;;7.53;;
62268;SDS011;56517;51.634;5.566;2022-09-21T07:26:22;16.42;;;7.60;;
62268;SDS011;56517;51.634;5.566;2022-09-21T07:31:24;10.30;;;6.88;;
62268;SDS011;56517;51.634;5.566;2022-09-21T07:36:24;9.88;;;5.43;;
62268;SDS011;56517;51.634;5.566;2022-09-21T07:41:25;11.57;;;6.40;;
62268;SDS011;56517;51.634;5.566;2022-09-21T07:46:27;13.10;;;4.55;;
62268;SDS011;56517;51.634;5.566;2022-09-21T07:51:27;7.85;;;4.70;;
62268;SDS011;56517;51.634;5.566;2022-09-21T07:56:28;9.50;;;4.28;;
62268;SDS011;56517;51.634;5.566;2022-09-21T08:01:30;8.50;;;4.88;;
62268;SDS011;56517;51.634;5.566;2022-09-21T08:06:31;9.85;;;4.82;;
62268;SDS011;56517;51.634;5.566;2022-09-21T08:11:32;9.13;;;4.88;;
62268;SDS011;56517;51.634;5.566;2022-09-21T08:16:36;9.38;;;4.28;;
62268;SDS011;56517;51.634;5.566;2022-09-21T08:21:37;8.40;;;4.35;;
62268;SDS011;56517;51.634;5.566;2022-09-21T08:26:37;11.63;;;5.18;;
62268;SDS011;56517;51.634;5.566;2022-09-21T08:31:39;7.03;;;4.10;;
62268;SDS011;56517;51.634;5.566;2022-09-21T08:36:40;9.73;;;4.38;;
62268;SDS011;56517;51.634;5.566;2022-09-21T08:51:53;5.95;;;3.63;;
62268;SDS011;56517;51.634;5.566;2022-09-21T08:56:55;5.53;;;3.83;;
62268;SDS011;56517;51.634;5.566;2022-09-21T09:01:56;7.40;;;4.20;;
62268;SDS011;56517;51.634;5.566;2022-09-21T09:07:12;6.03;;;3.85;;
62268;SDS011;56517;51.634;5.566;2022-09-21T09:12:17;7.50;;;3.78;;
62268;SDS011;56517;51.634;5.566;2022-09-21T09:17:25;5.32;;;3.25;;
62268;SDS011;56517;51.634;5.566;2022-09-21T09:22:29;6.60;;;3.05;;
62268;SDS011;56517;51.634;5.566;2022-09-21T09:27:32;8.93;;;3.00;;
62268;SDS011;56517;51.634;5.566;2022-09-21T09:32:37;5.25;;;2.70;;
62268;SDS011;56517;51.634;5.566;2022-09-21T09:37:40;9.15;;;3.45;;
62268;SDS011;56517;51.634;5.566;2022-09-21T09:42:45;6.07;;;3.08;;
62268;SDS011;56517;51.634;5.566;2022-09-21T09:47:52;4.32;;;2.65;;
62268;SDS011;56517;51.634;5.566;2022-09-21T09:53:00;6.40;;;2.88;;
62268;SDS011;56517;51.634;5.566;2022-09-21T09:58:02;6.43;;;3.53;;
62268;SDS011;56517;51.634;5.566;2022-09-21T10:03:07;3.95;;;2.60;;
62268;SDS011;56517;51.634;5.566;2022-09-21T10:08:38;4.88;;;2.70;;
62268;SDS011;56517;51.634;5.566;2022-09-21T10:13:39;5.00;;;2.80;;
62268;SDS011;56517;51.634;5.566;2022-09-21T10:18:44;4.32;;;2.50;;
62268;SDS011;56517;51.634;5.566;2022-09-21T10:23:46;7.53;;;3.03;;
62268;SDS011;56517;51.634;5.566;2022-09-21T10:28:54;4.50;;;2.53;;
62268;SDS011;56517;51.634;5.566;2022-09-21T10:34:03;5.40;;;2.72;;
62268;SDS011;56517;51.634;5.566;2022-09-21T10:44:11;4.45;;;2.40;;
62268;SDS011;56517;51.634;5.566;2022-09-21T10:49:16;6.78;;;3.20;;
62268;SDS011;56517;51.634;5.566;2022-09-21T10:54:20;6.57;;;3.92;;
62268;SDS011;56517;51.634;5.566;2022-09-21T10:59:24;4.05;;;2.90;;
62268;SDS011;56517;51.634;5.566;2022-09-21T11:04:30;3.50;;;3.00;;
62268;SDS011;56517;51.634;5.566;2022-09-21T11:09:33;2.80;;;2.60;;
62268;SDS011;56517;51.634;5.566;2022-09-21T11:14:40;2.58;;;2.47;;
62268;SDS011;56517;51.634;5.566;2022-09-21T11:19:43;4.75;;;2.90;;
62268;SDS011;56517;51.634;5.566;2022-09-21T11:24:48;5.38;;;2.83;;
62268;SDS011;56517;51.634;5.566;2022-09-21T11:29:54;4.10;;;2.92;;
62268;SDS011;56517;51.634;5.566;2022-09-21T11:40:22;3.38;;;2.75;;
62268;SDS011;56517;51.634;5.566;2022-09-21T11:45:30;3.47;;;2.80;;
62268;SDS011;56517;51.634;5.566;2022-09-21T11:50:36;6.50;;;2.70;;
62268;SDS011;56517;51.634;5.566;2022-09-21T11:55:43;5.45;;;2.50;;
62268;SDS011;56517;51.634;5.566;2022-09-21T12:00:52;3.35;;;2.53;;
62268;SDS011;56517;51.634;5.566;2022-09-21T12:05:57;4.70;;;2.90;;
62268;SDS011;56517;51.634;5.566;2022-09-21T12:16:07;7.15;;;2.90;;
62268;SDS011;56517;51.634;5.566;2022-09-21T12:21:11;3.95;;;2.60;;
62268;SDS011;56517;51.634;5.566;2022-09-21T12:26:15;7.82;;;3.40;;
62268;SDS011;56517;51.634;5.566;2022-09-21T12:31:20;5.45;;;2.83;;
62268;SDS011;56517;51.634;5.566;2022-09-21T12:36:23;5.30;;;3.00;;
62268;SDS011;56517;51.634;5.566;2022-09-21T12:41:27;4.05;;;2.70;;
62268;SDS011;56517;51.634;5.566;2022-09-21T12:46:32;7.30;;;2.65;;
62268;SDS011;56517;51.634;5.566;2022-09-21T12:51:35;3.38;;;2.65;;
62268;SDS011;56517;51.634;5.566;2022-09-21T12:56:39;5.35;;;2.70;;
62268;SDS011;56517;51.634;5.566;2022-09-21T13:01:44;5.43;;;2.50;;
62268;SDS011;56517;51.634;5.566;2022-09-21T13:06:56;4.97;;;2.70;;
62268;SDS011;56517;51.634;5.566;2022-09-21T13:12:05;5.53;;;2.67;;
62268;SDS011;56517;51.634;5.566;2022-09-21T13:17:14;6.85;;;2.90;;
62268;SDS011;56517;51.634;5.566;2022-09-21T13:22:20;7.97;;;3.35;;
62268;SDS011;56517;51.634;5.566;2022-09-21T13:27:21;4.78;;;2.90;;
62268;SDS011;56517;51.634;5.566;2022-09-21T13:32:23;4.88;;;2.88;;
62268;SDS011;56517;51.634;5.566;2022-09-21T13:37:54;3.30;;;2.92;;
62268;SDS011;56517;51.634;5.566;2022-09-21T13:43:16;2.85;;;2.65;;
62268;SDS011;56517;51.634;5.566;2022-09-21T13:48:17;5.05;;;2.90;;
62268;SDS011;56517;51.634;5.566;2022-09-21T13:53:22;5.60;;;2.88;;
62268;SDS011;56517;51.634;5.566;2022-09-21T13:58:24;3.40;;;2.80;;
62268;SDS011;56517;51.634;5.566;2022-09-21T14:03:26;5.70;;;3.00;;
62268;SDS011;56517;51.634;5.566;2022-09-21T14:08:34;9.40;;;4.05;;
62268;SDS011;56517;51.634;5.566;2022-09-21T14:13:36;4.78;;;2.60;;
62268;SDS011;56517;51.634;5.566;2022-09-21T14:18:37;6.28;;;3.38;;
62268;SDS011;56517;51.634;5.566;2022-09-21T14:23:39;10.20;;;3.47;;
62268;SDS011;56517;51.634;5.566;2022-09-21T14:28:41;5.40;;;3.33;;
62268;SDS011;56517;51.634;5.566;2022-09-21T14:33:43;10.02;;;4.40;;
62268;SDS011;56517;51.634;5.566;2022-09-21T14:38:47;5.75;;;3.80;;
62268;SDS011;56517;51.634;5.566;2022-09-21T14:43:49;6.75;;;3.67;;
62268;SDS011;56517;51.634;5.566;2022-09-21T14:48:54;5.40;;;3.47;;
62268;SDS011;56517;51.634;5.566;2022-09-21T14:54:10;7.25;;;3.60;;
62268;SDS011;56517;51.634;5.566;2022-09-21T14:59:19;13.13;;;4.47;;
62268;SDS011;56517;51.634;5.566;2022-09-21T15:09:42;8.00;;;3.72;;
62268;SDS011;56517;51.634;5.566;2022-09-21T15:14:45;7.30;;;4.38;;
62268;SDS011;56517;51.634;5.566;2022-09-21T15:19:46;7.20;;;3.97;;
62268;SDS011;56517;51.634;5.566;2022-09-21T15:24:49;8.00;;;4.38;;
62268;SDS011;56517;51.634;5.566;2022-09-21T15:29:50;7.47;;;3.95;;
62268;SDS011;56517;51.634;5.566;2022-09-21T15:34:56;10.23;;;4.80;;
62268;SDS011;56517;51.634;5.566;2022-09-21T15:40:02;7.60;;;4.50;;
62268;SDS011;56517;51.634;5.566;2022-09-21T15:45:11;9.70;;;4.93;;
62268;SDS011;56517;51.634;5.566;2022-09-21T15:50:13;9.93;;;5.00;;
62268;SDS011;56517;51.634;5.566;2022-09-21T15:55:16;8.55;;;4.50;;
62268;SDS011;56517;51.634;5.566;2022-09-21T16:00:18;9.00;;;4.28;;
62268;SDS011;56517;51.634;5.566;2022-09-21T16:05:19;8.00;;;5.47;;
62268;SDS011;56517;51.634;5.566;2022-09-21T16:10:34;9.57;;;5.18;;
62268;SDS011;56517;51.634;5.566;2022-09-21T16:15:35;9.25;;;5.22;;
62268;SDS011;56517;51.634;5.566;2022-09-21T16:20:40;6.78;;;5.20;;
62268;SDS011;56517;51.634;5.566;2022-09-21T16:25:42;8.40;;;5.50;;
62268;SDS011;56517;51.634;5.566;2022-09-21T16:30:45;10.30;;;6.70;;
62268;SDS011;56517;51.634;5.566;2022-09-21T16:35:46;20.48;;;11.50;;
62268;SDS011;56517;51.634;5.566;2022-09-21T16:40:48;9.07;;;6.78;;
62268;SDS011;56517;51.634;5.566;2022-09-21T16:45:48;9.68;;;6.68;;
62268;SDS011;56517;51.634;5.566;2022-09-21T16:50:49;10.48;;;7.70;;
62268;SDS011;56517;51.634;5.566;2022-09-21T16:55:51;10.85;;;8.40;;
62268;SDS011;56517;51.634;5.566;2022-09-21T17:00:52;12.10;;;8.27;;
62268;SDS011;56517;51.634;5.566;2022-09-21T17:05:52;13.50;;;8.07;;
62268;SDS011;56517;51.634;5.566;2022-09-21T17:10:54;14.23;;;8.00;;
62268;SDS011;56517;51.634;5.566;2022-09-21T17:15:55;10.32;;;8.45;;
62268;SDS011;56517;51.634;5.566;2022-09-21T17:20:55;14.40;;;8.77;;
62268;SDS011;56517;51.634;5.566;2022-09-21T17:26:00;13.43;;;9.73;;
62268;SDS011;56517;51.634;5.566;2022-09-21T17:31:01;14.38;;;10.15;;
62268;SDS011;56517;51.634;5.566;2022-09-21T17:36:02;16.83;;;10.02;;
62268;SDS011;56517;51.634;5.566;2022-09-21T17:41:05;12.57;;;10.07;;
62268;SDS011;56517;51.634;5.566;2022-09-21T17:46:09;14.77;;;10.77;;
62268;SDS011;56517;51.634;5.566;2022-09-21T17:51:12;15.43;;;10.45;;
62268;SDS011;56517;51.634;5.566;2022-09-21T17:56:17;15.63;;;11.15;;
62268;SDS011;56517;51.634;5.566;2022-09-21T18:01:23;16.08;;;11.80;;
62268;SDS011;56517;51.634;5.566;2022-09-21T18:06:25;16.60;;;12.00;;
62268;SDS011;56517;51.634;5.566;2022-09-21T18:11:40;19.55;;;13.48;;
62268;SDS011;56517;51.634;5.566;2022-09-21T18:16:44;19.20;;;14.98;;
62268;SDS011;56517;51.634;5.566;2022-09-21T18:21:46;20.50;;;14.43;;
62268;SDS011;56517;51.634;5.566;2022-09-21T18:26:50;21.55;;;15.15;;
62268;SDS011;56517;51.634;5.566;2022-09-21T18:31:53;23.45;;;15.00;;
62268;SDS011;56517;51.634;5.566;2022-09-21T18:36:59;22.30;;;18.17;;
62268;SDS011;56517;51.634;5.566;2022-09-21T18:42:07;23.17;;;13.77;;
62268;SDS011;56517;51.634;5.566;2022-09-21T18:47:11;18.77;;;14.32;;
62268;SDS011;56517;51.634;5.566;2022-09-21T18:52:15;19.52;;;14.52;;
62268;SDS011;56517;51.634;5.566;2022-09-21T18:57:17;22.23;;;15.15;;
62268;SDS011;56517;51.634;5.566;2022-09-21T19:02:18;25.05;;;16.10;;
62268;SDS011;56517;51.634;5.566;2022-09-21T19:07:20;20.52;;;15.90;;
62268;SDS011;56517;51.634;5.566;2022-09-21T19:12:31;22.98;;;15.63;;
62268;SDS011;56517;51.634;5.566;2022-09-21T19:17:38;19.35;;;15.05;;
62268;SDS011;56517;51.634;5.566;2022-09-21T19:22:43;17.58;;;15.32;;
62268;SDS011;56517;51.634;5.566;2022-09-21T19:27:49;22.25;;;15.98;;
62268;SDS011;56517;51.634;5.566;2022-09-21T19:32:52;20.45;;;15.60;;
62268;SDS011;56517;51.634;5.566;2022-09-21T19:37:54;18.85;;;16.10;;
62268;SDS011;56517;51.634;5.566;2022-09-21T19:43:03;25.30;;;17.58;;
62268;SDS011;56517;51.634;5.566;2022-09-21T19:48:07;24.40;;;17.30;;
62268;SDS011;56517;51.634;5.566;2022-09-21T19:53:09;21.90;;;16.88;;
62268;SDS011;56517;51.634;5.566;2022-09-21T19:58:12;24.83;;;17.70;;
62268;SDS011;56517;51.634;5.566;2022-09-21T20:03:14;23.70;;;17.13;;
62268;SDS011;56517;51.634;5.566;2022-09-21T20:08:17;25.77;;;16.38;;
62268;SDS011;56517;51.634;5.566;2022-09-21T20:13:22;21.98;;;16.08;;
62268;SDS011;56517;51.634;5.566;2022-09-21T20:18:26;22.10;;;16.42;;
62268;SDS011;56517;51.634;5.566;2022-09-21T20:23:28;22.40;;;16.65;;
62268;SDS011;56517;51.634;5.566;2022-09-21T20:28:30;25.23;;;15.90;;
62268;SDS011;56517;51.634;5.566;2022-09-21T20:33:31;21.80;;;16.30;;
62268;SDS011;56517;51.634;5.566;2022-09-21T20:38:31;21.10;;;16.25;;
62268;SDS011;56517;51.634;5.566;2022-09-21T20:43:33;18.75;;;14.88;;
62268;SDS011;56517;51.634;5.566;2022-09-21T20:48:34;24.73;;;15.90;;
62268;SDS011;56517;51.634;5.566;2022-09-21T20:53:34;21.90;;;16.60;;
62268;SDS011;56517;51.634;5.566;2022-09-21T20:58:37;24.00;;;16.17;;
62268;SDS011;56517;51.634;5.566;2022-09-21T21:03:37;21.77;;;16.15;;
62268;SDS011;56517;51.634;5.566;2022-09-21T21:08:38;22.42;;;16.63;;
62268;SDS011;56517;51.634;5.566;2022-09-21T21:13:40;25.13;;;17.98;;
62268;SDS011;56517;51.634;5.566;2022-09-21T21:18:41;21.48;;;17.00;;
62268;SDS011;56517;51.634;5.566;2022-09-21T21:23:41;21.88;;;16.95;;
62268;SDS011;56517;51.634;5.566;2022-09-21T21:28:43;21.52;;;16.52;;
62268;SDS011;56517;51.634;5.566;2022-09-21T21:33:44;21.17;;;16.98;;
62268;SDS011;56517;51.634;5.566;2022-09-21T21:38:44;24.02;;;14.98;;
62268;SDS011;56517;51.634;5.566;2022-09-21T21:43:47;20.70;;;16.27;;
62268;SDS011;56517;51.634;5.566;2022-09-21T21:48:47;20.40;;;15.52;;
62268;SDS011;56517;51.634;5.566;2022-09-21T21:53:48;23.25;;;15.77;;
62268;SDS011;56517;51.634;5.566;2022-09-21T21:58:51;23.27;;;15.38;;
62268;SDS011;56517;51.634;5.566;2022-09-21T22:03:53;23.60;;;14.88;;
62268;SDS011;56517;51.634;5.566;2022-09-21T22:08:54;20.58;;;13.85;;
62268;SDS011;56517;51.634;5.566;2022-09-21T22:13:56;23.10;;;15.88;;
62268;SDS011;56517;51.634;5.566;2022-09-21T22:18:57;21.67;;;14.77;;
62268;SDS011;56517;51.634;5.566;2022-09-21T22:23:59;23.60;;;15.27;;
62268;SDS011;56517;51.634;5.566;2022-09-21T22:29:02;20.77;;;14.88;;
62268;SDS011;56517;51.634;5.566;2022-09-21T22:34:03;25.65;;;14.52;;
62268;SDS011;56517;51.634;5.566;2022-09-21T22:39:04;19.92;;;15.70;;
62268;SDS011;56517;51.634;5.566;2022-09-21T22:44:06;19.63;;;15.95;;
62268;SDS011;56517;51.634;5.566;2022-09-21T22:49:07;21.45;;;15.82;;
62268;SDS011;56517;51.634;5.566;2022-09-21T22:54:07;20.10;;;14.95;;
62268;SDS011;56517;51.634;5.566;2022-09-21T22:59:09;17.80;;;14.02;;
62268;SDS011;56517;51.634;5.566;2022-09-21T23:04:11;17.45;;;14.05;;
62268;SDS011;56517;51.634;5.566;2022-09-21T23:09:12;21.25;;;13.52;;
62268;SDS011;56517;51.634;5.566;2022-09-21T23:14:15;15.63;;;13.60;;
62268;SDS011;56517;51.634;5.566;2022-09-21T23:19:15;18.95;;;12.60;;
62268;SDS011;56517;51.634;5.566;2022-09-21T23:24:16;14.75;;;12.48;;
62268;SDS011;56517;51.634;5.566;2022-09-21T23:29:18;12.57;;;11.27;;
62268;SDS011;56517;51.634;5.566;2022-09-21T23:34:19;15.77;;;11.25;;
62268;SDS011;56517;51.634;5.566;2022-09-21T23:39:19;15.40;;;11.48;;
62268;SDS011;56517;51.634;5.566;2022-09-21T23:44:21;15.60;;;12.13;;
62268;SDS011;56517;51.634;5.566;2022-09-21T23:49:22;16.00;;;12.32;;
62268;SDS011;56517;51.634;5.566;2022-09-21T23:54:23;18.00;;;12.88;;
62268;SDS011;56517;51.634;5.566;2022-09-21T23:59:24;16.45;;;11.48;;
